Nearby METAR Reports

 

KELM - Elmira, New York, USA
Distance from station: W 13mi, 20km
Updated: Tue, 23-May-2017 4:53am EDT
Fog, Overcast
Fog, Overcast
 Wind from calm
Wind: Calm
Temperature: 41°F , 5°C
Dew Point: 39°F , 4°C
Humidity: 93%
Barometer: 29.99 inHg , 1015.6 hPa
Summary: Fog
Clouds: Overcast
Visibility: 1/2 mile , 2 km
Cloud details: Overcast 100 ft
2017/05/23 08:53 KELM 230853Z AUTO 00000KT 1/2SM R24/P6000FT FG VV001 05/04 A2999 RMK AO2 SLP155 T00500039 58005
KITH - Ithaca/Tompkins, New York, USA
Distance from station: NNE 24mi, 39km
Updated: Tue, 23-May-2017 3:56am EDT
Clear
Clear
 Wind from ENE
Wind: ENE 5 mph , 7 km/h
Temperature: 43°F , 6°C
Wind Chill: 40°F , 4°C
Dew Point: 43°F , 6°C
Humidity: 100%
Barometer: 29.99 inHg , 1015.6 hPa
Clouds: Clear
Visibility: 10 miles , 16 km
2017/05/23 07:56 KITH 230756Z AUTO 07004KT 10SM CLR 06/06 A2999 RMK AO2 SLP155 T00610056 TSNO
KBGM - Binghamton, New York, USA
Distance from station: E 35mi, 56km
Updated: Tue, 23-May-2017 4:53am EDT
Clear
Clear
 Wind from calm
Wind: Calm
Temperature: 46°F , 8°C
Dew Point: 41°F , 5°C
Humidity: 82%
Barometer: 29.97 inHg , 1014.9 hPa
Clouds: Clear
Visibility: 10 miles , 16 km
2017/05/23 08:53 KBGM 230853Z AUTO 00000KT 10SM CLR 08/05 A2997 RMK AO2 SLP151 T00830050 58006
 
KPEO - Penn Yan, New York, USA
Distance from station: NNW 40mi, 64km
Updated: Tue, 23-May-2017 4:53am EDT
Clear
Clear
 Wind from SSW
Wind: SSW 9 mph , 15 km/h
Temperature: 48°F , 9°C
Wind Chill: 44°F , 7°C
Dew Point: 43°F , 6°C
Humidity: 82%
Barometer: 29.96 inHg , 1014.6 hPa
Clouds: Clear
Visibility: 10 miles , 16 km
2017/05/23 08:53 KPEO 230853Z AUTO 21008KT 10SM CLR 09/06 A2996 RMK AO2 SLP146 T00890056 58009
KDSV - Dansville, New York, USA
Distance from station: WNW 61mi, 99km
Updated: Tue, 23-May-2017 4:54am EDT
Clear
Clear
 Wind from SE
Wind: SE 8 mph , 13 km/h
Temperature: 45°F , 7°C
Wind Chill: 41°F , 5°C
Dew Point: 43°F , 6°C
Humidity: 93%
Barometer: 29.98 inHg , 1015.2 hPa
Clouds: Clear
Visibility: 10 miles , 16 km
2017/05/23 08:54 KDSV 230854Z AUTO 13007KT 10SM CLR 07/06 A2998 RMK AO2 SLP160 T00720056 58006
KIPT - Williamsport, Pennsylvania, USA
Distance from station: SSW 64mi, 102km
Updated: Tue, 23-May-2017 4:54am EDT
Mist, Overcast
Mist, Overcast
 Wind from WNW
Wind: WNW 5 mph , 7 km/h
Temperature: 52°F , 11°C
Dew Point: 52°F , 11°C
Humidity: 100%
Barometer: 29.97 inHg , 1014.9 hPa
Summary: Mist
Clouds: Overcast
Visibility: 2 1/2 miles , 2 km
Cloud details: Overcast 200 ft
2017/05/23 08:54 KIPT 230854Z AUTO 29004KT 2 1/2SM BR OVC002 11/11 A2997 RMK AO2 SLP147 T01110106 58007
 
KELZ - Wellsville, New York, USA
Distance from station: W 68mi, 110km
Updated: Tue, 23-May-2017 3:56am EDT
Clear
Clear
 Wind from WSW
Wind: WSW 3 mph , 6 km/h
Temperature: 48°F , 9°C
Dew Point: 39°F , 4°C
Humidity: 71%
Barometer: 29.99 inHg , 1015.6 hPa
Clouds: Clear
Visibility: 10 miles , 16 km
2017/05/23 07:56 KELZ 230756Z AUTO 25003KT 10SM CLR 09/04 A2999 RMK AO2 SLP156 T00890044
KSYR - Syracuse, New York, USA
Distance from station: NNE 72mi, 117km
Updated: Tue, 23-May-2017 4:54am EDT
Partly cloudy
Partly cloudy
 Wind from calm
Wind: Calm
Temperature: 45°F , 7°C
Dew Point: 43°F , 6°C
Humidity: 93%
Barometer: 29.95 inHg , 1014.2 hPa
Clouds: Partly cloudy
Visibility: 10 miles , 16 km
Cloud details: Few Clouds 16000 ft
Partly cloudy 25000 ft
2017/05/23 08:54 KSYR 230854Z 00000KT 10SM FEW160 SCT250 07/06 A2995 RMK AO2 SLP138 T00720056 56009
KAVP - Avoca/Wilkes B., Pennsylvania, USA
Distance from station: SE 74mi, 120km
Updated: Tue, 23-May-2017 4:54am EDT
Clear
Clear
 Wind from E
Wind: E 5 mph , 7 km/h
Temperature: 52°F , 11°C
Dew Point: 45°F , 7°C
Humidity: 77%
Barometer: 29.97 inHg , 1014.9 hPa
Clouds: Clear
Visibility: 10 miles , 16 km
2017/05/23 08:54 KAVP 230854Z 10004KT 10SM CLR 11/07 A2997 RMK AO2 SLP146 T01110067 58008